Nearby METAR Reports

 

KDWH - Houston/Dw Hooks, Texas, USA
Distance from station: WNW 3mi, 6km
Updated: 02/18/2020 2:53am
Mist, Overcast
Mist, Overcast
 Wind from S
Wind: S 5 mph , 7 km/h
Temperature: 70°F , 21°C
Dew Point: 66°F , 19°C
Humidity: 88%
Barometer: 29.90 inHg , 1012.5 hPa
Summary: Mist
Clouds: Overcast
Visibility: 6 miles , 10 km
Cloud details: Overcast 800 ft
2020/02/18 08:53 KDWH 180853Z AUTO 17004KT 6SM BR OVC008 21/19 A2990 RMK AO2 SLP121 T02110189 56004
KIAH - Houston/Intnl, Texas, USA
Distance from station: ESE 9mi, 14km
Updated: 02/18/2020 2:53am
Mist, Overcast
Mist, Overcast
 Wind from SSE
Wind: SSE 5 mph , 7 km/h
Temperature: 72°F , 22°C
Dew Point: 68°F , 20°C
Humidity: 88%
Barometer: 29.90 inHg , 1012.5 hPa
Summary: Mist
Clouds: Overcast
Visibility: 6 miles , 10 km
Cloud details: Mostly cloudy 800 ft
Overcast 3000 ft
2020/02/18 08:53 KIAH 180853Z 16004KT 6SM BR BKN008 OVC030 22/20 A2990 RMK AO2 SLP123 T02170200 58003
 
KCXO - Conroe, Texas, USA
Distance from station: NNE 21mi, 34km
Updated: 02/18/2020 3:34am
Mist, Overcast
Mist, Overcast
 Wind from SSE
Wind: SSE 7 mph , 11 km/h
Temperature: 70°F , 21°C
Dew Point: 66°F , 19°C
Humidity: 88%
Barometer: 29.90 inHg , 1012.5 hPa
Summary: Mist
Clouds: Overcast
Visibility: 5 miles , 8 km
Cloud details: Overcast 900 ft
2020/02/18 09:34 KCXO 180934Z AUTO 15006KT 5SM BR OVC009 21/19 A2990 RMK AO2 CIG 007V013 T02060194
KMCJ - Houston/Univ, Texas, USA
Distance from station: SSE 24mi, 39km
Updated: 02/17/2020 5:55pm
NOT Current
Partly cloudy
Partly cloudy
 Wind from varies
Wind: varies 3 mph , 6 km/h, Gust: 12 mph , 19 km/h
Temperature: 75°F , 24°C
Dew Point: 70°F , 21°C
Humidity: 83%
Barometer: 29.84 inHg , 1010.5 hPa
Clouds: Partly cloudy
Visibility: 7 miles , 11 km
Cloud details: Few Clouds 1600 ft
Partly cloudy 2800 ft
Partly cloudy 3400 ft
2020/02/17 23:55 KMCJ 172355Z AUTO VRB03G10KT 7SM FEW016 SCT028 SCT034 24/21 A2984 RMK A01
 
KTME - Houston Exec, Texas, USA
Distance from station: SW 30mi, 48km
Updated: 02/18/2020 3:35am
Mist, Overcast
Mist, Overcast
 Wind from S
Wind: S 7 mph , 11 km/h
Temperature: 70°F , 21°C
Dew Point: 70°F , 21°C
Humidity: 100%
Barometer: 29.90 inHg , 1012.5 hPa
Summary: Mist
Clouds: Overcast
Visibility: 4 miles , 6 km
Cloud details: Mostly cloudy 1000 ft
Overcast 1400 ft
2020/02/18 09:35 KTME 180935Z AUTO 17006KT 4SM BR BKN010 OVC014 21/21 A2990 RMK AO2
KHOU - Houston/Hobby, Texas, USA
Distance from station: SSE 32mi, 51km
Updated: 02/18/2020 2:53am
Mist, Overcast
Mist, Overcast
 Wind from S
Wind: S 10 mph , 17 km/h
Temperature: 72°F , 22°C
Dew Point: 68°F , 20°C
Humidity: 88%
Barometer: 29.89 inHg , 1012.2 hPa
Summary: Mist
Clouds: Overcast
Visibility: 4 miles , 6 km
Cloud details: Overcast 400 ft
2020/02/18 08:53 KHOU 180853Z 17009KT 4SM BR OVC004 22/20 A2989 RMK AO2 SLP128 T02170200 58006 $
 
KSGR - Houston/Sugar La, Texas, USA
Distance from station: SSW 32mi, 51km
Updated: 02/18/2020 3:19am
Mist, Overcast
Mist, Overcast
 Wind from SE
Wind: SE 6 mph , 9 km/h
Temperature: 72°F , 22°C
Dew Point: 70°F , 21°C
Humidity: 94%
Barometer: 29.90 inHg , 1012.5 hPa
Summary: Mist
Clouds: Overcast
Visibility: 5 miles , 8 km
Cloud details: Overcast 900 ft
2020/02/18 09:19 KSGR 180919Z AUTO 14005KT 5SM BR OVC009 22/21 A2990 RMK AO2 CIG 006V012 T02170206
K6R3 - Cleveland Muni, Texas, USA
Distance from station: NE 36mi, 58km
Updated: 02/18/2020 3:15am
Mist, Overcast
Mist, Overcast
 Wind from S
Wind: S 5 mph , 7 km/h
Temperature: 70°F , 21°C
Dew Point: 68°F , 20°C
Humidity: 94%
Barometer: 29.92 inHg , 1013.2 hPa
Summary: Mist
Clouds: Overcast
Visibility: 1 1/2 miles , 2.4 km
Cloud details: Overcast 400 ft
2020/02/18 09:15 K6R3 180915Z AUTO 18004KT 1 1/2SM BR OVC004 21/20 A2992 RMK AO2 T02050198
 
KAXH - Houston/Southwst, Texas, USA
Distance from station: S 37mi, 60km
Updated: 02/18/2020 3:35am
Mist, Overcast
Mist, Overcast
 Wind from calm
Wind: Calm
Temperature: 70°F , 21°C
Dew Point: 70°F , 21°C
Humidity: 100%
Barometer: 29.92 inHg , 1013.2 hPa
Summary: Mist
Clouds: Overcast
Visibility: 2 1/2 miles , 4 km
Cloud details: Overcast 300 ft
2020/02/18 09:35 KAXH 180935Z AUTO 00000KT 2 1/2SM BR OVC003 21/21 A2992 RMK AO2 T02050205
KEFD - Houston/Ellingto, Texas, USA
Distance from station: SSE 37mi, 60km
Updated: 02/18/2020 1:50am
NOT Current
Mist, Overcast
Mist, Overcast
 Wind from SSE
Wind: SSE 12 mph , 19 km/h
Temperature: 70°F , 21°C
Dew Point: 70°F , 21°C
Humidity: 100%
Barometer: 29.91 inHg , 1012.9 hPa
Summary: Mist
Clouds: Overcast
Visibility: 4 miles , 6 km
Cloud details: Overcast 500 ft
2020/02/18 07:50 KEFD 180750Z 16010KT 4SM BR OVC005 21/21 A2991
 
KLVJ - Houston, Texas, USA
Distance from station: SSE 40mi, 64km
Updated: 02/18/2020 2:53am
Mist, Overcast
Mist, Overcast
 Wind from SSE
Wind: SSE 5 mph , 7 km/h
Temperature: 70°F , 21°C
Dew Point: 68°F , 20°C
Humidity: 94%
Barometer: 29.92 inHg , 1013.2 hPa
Summary: Mist
Clouds: Overcast
Visibility: 1 1/4 miles , 2 km
Cloud details: Overcast 300 ft
2020/02/18 08:53 KLVJ 180853Z AUTO 16004KT 1 1/4SM BR OVC003 21/20 A2992 RMK AO2 SLP129 T02110200 58001
KUTS - Huntsville, Texas, USA
Distance from station: N 48mi, 78km
Updated: 02/18/2020 3:30am
Mist, Mostly cloudy
Mist, Mostly cloudy
 Wind from S
Wind: S 6 mph , 9 km/h
Temperature: 70°F , 21°C
Dew Point: 66°F , 19°C
Humidity: 88%
Barometer: 29.89 inHg , 1012.2 hPa
Summary: Mist
Clouds: Mostly cloudy
Visibility: 6 miles , 10 km
Cloud details: Mostly cloudy 1100 ft
Mostly cloudy 1500 ft
Mostly cloudy 2000 ft
2020/02/18 09:30 KUTS 180930Z AUTO 18005KT 6SM BR BKN011 BKN015 BKN020 21/19 A2989 RMK AO2 T02060189 $